Metar Aviation Weather Data KPWM Portland International Jetport

21°F Temp
7°F Dewpoint
54% Humidity
Temperature
6 MPH
10 KM/H
5 KTS
350°
Due North

Wind Speed
Partly Cloudy
Conditions
Pressure 1020 (hPa) - 30.12 (in)
Visibility 10.0 (mi) - 16 (km)

Current Conditions
KPWM
Portland International Jetport
Metar :KPWM 171351Z 35005KT 10SM FEW250 M06/M14 A3012 RMK AO2 SLP200 T10561144
Wed 31st December 14:00 pm

Portland International Jetport
  Metar Aviation API Data Provided by https://www.checkwx.com/ PHP scripts by weather34.com ©2019